createdAt,value
2023-03-24T00:01:58.588Z,8.80
2023-03-24T00:04:25.373Z,11.70
2023-03-24T00:06:52.598Z,7.30
2023-03-24T00:09:19.327Z,6.33
2023-03-24T00:11:46.193Z,8.00
2023-03-24T00:14:12.885Z,8.87
2023-03-24T00:16:42.683Z,8.33
2023-03-24T00:19:10.763Z,7.43
2023-03-24T00:21:37.600Z,9.07
2023-03-24T00:24:05.033Z,8.17
2023-03-24T00:26:32.482Z,10.80
2023-03-24T00:28:59.140Z,7.50
2023-03-24T00:31:26.220Z,8.13
2023-03-24T00:33:53.990Z,7.53
2023-03-24T00:36:22.117Z,9.07
2023-03-24T00:38:50.212Z,8.17
2023-03-24T00:41:20.089Z,8.70
2023-03-24T00:43:47.862Z,7.77
2023-03-24T00:46:27.387Z,7.07
2023-03-24T00:49:02.771Z,6.10
2023-03-24T00:51:36.475Z,8.30
2023-03-24T00:54:03.496Z,5.07
2023-03-24T00:56:31.583Z,5.93
2023-03-24T00:58:58.335Z,7.50
2023-03-24T01:01:25.846Z,7.17
2023-03-24T01:03:52.687Z,6.10
2023-03-24T01:06:22.321Z,7.47
2023-03-24T01:08:49.522Z,6.57
2023-03-24T01:11:16.688Z,6.10
2023-03-24T01:13:43.468Z,7.03
2023-03-24T01:16:10.273Z,5.83
2023-03-24T01:18:40.816Z,6.97
2023-03-24T01:21:08.418Z,6.20
2023-03-24T01:23:35.142Z,7.80
2023-03-24T01:26:04.412Z,12.37
2023-03-24T01:28:31.558Z,10.70
2023-03-24T01:30:58.459Z,7.37
2023-03-24T01:33:25.182Z,8.03
2023-03-24T01:35:51.938Z,10.33
2023-03-24T01:38:18.624Z,9.23
2023-03-24T01:40:46.562Z,9.20
2023-03-24T02:18:27.812Z,13.90
2023-03-24T02:21:11.077Z,16.00
2023-03-24T02:23:54.283Z,17.13
2023-03-24T02:26:26.537Z,16.07
2023-03-24T02:29:05.452Z,18.33
2023-03-24T02:31:34.398Z,16.77
2023-03-24T02:34:13.264Z,16.60
2023-03-24T02:36:55.496Z,17.83
2023-03-24T02:39:31.813Z,19.37
2023-03-24T02:42:10.996Z,18.80
2023-03-24T02:44:44.670Z,19.93
2023-03-24T02:47:11.638Z,19.47
2023-03-24T02:50:04.712Z,25.37
2023-03-24T02:52:31.512Z,17.20
2023-03-24T02:55:00.847Z,21.53
2023-03-24T02:57:39.996Z,20.27
2023-03-24T03:00:43.316Z,20.07
2023-03-24T03:03:34.707Z,18.83
2023-03-24T03:06:05.237Z,18.17
2023-03-24T03:08:34.025Z,19.30
2023-03-24T03:11:01.477Z,20.07
2023-03-24T03:13:28.272Z,18.40
2023-03-24T03:15:56.089Z,18.27
2023-03-24T03:18:25.640Z,17.77
2023-03-24T03:20:53.217Z,19.97
2023-03-24T03:23:23.506Z,18.30
2023-03-24T03:25:51.427Z,18.93
2023-03-24T03:28:23.815Z,20.67
2023-03-24T03:30:52.993Z,24.77
2023-03-24T03:33:31.194Z,22.80
2023-03-24T03:36:09.233Z,23.03
2023-03-24T03:39:06.742Z,26.00
2023-03-24T03:41:34.465Z,25.17
2023-03-24T03:44:01.448Z,29.07
2023-03-24T03:46:28.547Z,30.77
2023-03-24T03:48:56.426Z,33.20
2023-03-24T03:51:23.291Z,30.63
2023-03-24T03:53:55.633Z,34.17
2023-03-24T03:56:23.806Z,30.30
2023-03-24T03:59:42.906Z,35.63
2023-03-24T04:02:28.331Z,35.47
2023-03-24T04:05:14.178Z,32.00
2023-03-24T04:07:58.241Z,34.30
2023-03-24T04:10:47.064Z,34.47
2023-03-24T04:13:39.716Z,29.67
2023-03-24T04:16:18.332Z,28.47
2023-03-24T04:19:28.192Z,29.63
2023-03-24T04:21:58.472Z,25.67
2023-03-24T04:24:29.231Z,28.77
2023-03-24T04:27:06.637Z,24.67
2023-03-24T04:29:34.681Z,26.27
2023-03-24T04:32:02.999Z,24.33
2023-03-24T04:34:33.776Z,22.73
2023-03-24T04:37:21.816Z,23.87
2023-03-24T04:40:01.875Z,21.53
2023-03-24T04:42:31.143Z,22.47
2023-03-24T04:44:57.841Z,17.13
2023-03-24T04:47:57.579Z,20.50
2023-03-24T04:50:37.145Z,20.83
2023-03-24T04:53:08.386Z,18.00
2023-03-24T04:55:45.536Z,19.30
2023-03-24T04:58:12.568Z,17.37
2023-03-24T05:00:41.635Z,17.53
2023-03-24T05:03:08.589Z,16.27
2023-03-24T05:05:35.337Z,17.00
2023-03-24T05:08:02.149Z,18.30
2023-03-24T05:10:28.777Z,17.57
2023-03-24T05:12:58.313Z,16.40
2023-03-24T05:15:31.032Z,19.90
2023-03-24T05:18:20.616Z,17.27
2023-03-24T05:20:47.403Z,16.70
2023-03-24T05:23:19.662Z,19.53
2023-03-24T05:25:48.097Z,17.87
2023-03-24T05:28:16.640Z,16.70
2023-03-24T05:30:44.064Z,19.57
2023-03-24T05:33:30.943Z,20.30
2023-03-24T05:35:58.963Z,21.07
2023-03-24T05:38:25.905Z,18.50
2023-03-24T05:40:58.387Z,19.43
2023-03-24T05:43:29.348Z,18.93
2023-03-24T05:46:07.085Z,19.47
2023-03-24T05:48:34.660Z,22.20
2023-03-24T05:51:10.704Z,17.63
2023-03-24T05:53:38.086Z,17.30
2023-03-24T05:56:13.331Z,19.33
2023-03-24T05:59:02.798Z,16.33
2023-03-24T06:02:00.833Z,16.20
2023-03-24T06:04:57.800Z,17.27
2023-03-24T06:07:26.980Z,17.17
2023-03-24T06:09:58.265Z,18.17
2023-03-24T06:12:26.535Z,17.47
2023-03-24T06:15:01.858Z,13.60
2023-03-24T06:17:30.453Z,15.67
2023-03-24T06:20:03.005Z,16.33
2023-03-24T06:23:01.063Z,13.50
2023-03-24T06:25:35.588Z,14.20
2023-03-24T06:28:30.542Z,11.47
2023-03-24T06:31:00.792Z,13.30
2023-03-24T06:33:34.774Z,14.00
2023-03-24T06:36:03.002Z,14.27
2023-03-24T06:38:31.527Z,14.10
2023-03-24T06:41:05.236Z,12.47
2023-03-24T06:43:32.136Z,13.40
2023-03-24T06:45:59.302Z,13.87
2023-03-24T06:48:27.425Z,12.30
2023-03-24T06:51:01.723Z,12.43
2023-03-24T06:53:28.609Z,11.13
2023-03-24T06:55:55.601Z,10.43
2023-03-24T06:58:25.405Z,9.73
2023-03-24T07:01:05.488Z,9.43
2023-03-24T07:03:34.996Z,9.43
2023-03-24T07:06:18.543Z,8.00
2023-03-24T07:08:50.465Z,9.90
2023-03-24T07:11:18.116Z,8.87
2023-03-24T07:13:50.800Z,7.37
2023-03-24T07:16:18.016Z,7.33
2023-03-24T07:18:47.280Z,7.63
2023-03-24T07:21:15.951Z,9.43
2023-03-24T07:23:43.583Z,7.67
2023-03-24T07:26:15.574Z,7.27
2023-03-24T07:28:45.084Z,6.33
2023-03-24T07:31:13.607Z,7.10
2023-03-24T07:33:42.233Z,7.43
2023-03-24T07:36:09.138Z,6.80
2023-03-24T07:38:38.519Z,7.87
2023-03-24T07:41:09.752Z,7.53
2023-03-24T07:43:41.361Z,7.30
2023-03-24T07:46:19.758Z,5.30
2023-03-24T07:48:47.393Z,5.33
2023-03-24T07:51:18.178Z,5.57
2023-03-24T07:53:50.547Z,8.27
2023-03-24T07:56:28.194Z,7.23
2023-03-24T07:58:57.951Z,7.47
2023-03-24T08:01:31.992Z,4.93
2023-03-24T08:04:03.614Z,6.53
2023-03-24T08:06:49.236Z,6.00
2023-03-24T08:09:16.717Z,5.17
2023-03-24T08:11:43.496Z,5.17
2023-03-24T08:14:10.396Z,6.40
2023-03-24T08:16:39.192Z,6.00
2023-03-24T08:19:07.530Z,6.23
2023-03-24T08:21:34.182Z,7.80
2023-03-24T08:24:01.006Z,6.83
2023-03-24T08:26:35.178Z,8.53
2023-03-24T08:29:02.140Z,9.97
2023-03-24T08:31:34.918Z,9.77
2023-03-24T08:34:01.668Z,10.17
2023-03-24T08:36:28.371Z,8.87
2023-03-24T08:38:55.763Z,8.63
2023-03-24T08:41:22.892Z,8.83
2023-03-24T08:43:49.764Z,10.57
2023-03-24T08:46:16.876Z,9.20
2023-03-24T08:48:44.019Z,9.30
2023-03-24T08:51:14.180Z,11.67
2023-03-24T08:53:41.629Z,10.33
2023-03-24T08:56:09.225Z,7.10
2023-03-24T08:58:36.798Z,8.33
2023-03-24T09:01:04.054Z,10.07
2023-03-24T09:03:32.892Z,11.40
2023-03-24T09:05:59.960Z,10.83
2023-03-24T09:08:27.468Z,10.33
2023-03-24T09:10:55.081Z,9.63
2023-03-24T09:13:22.379Z,9.73
2023-03-24T09:15:49.834Z,9.80
2023-03-24T09:18:17.360Z,6.73
2023-03-24T09:20:44.415Z,9.77
2023-03-24T09:23:11.221Z,10.33
2023-03-24T09:25:37.944Z,12.33
2023-03-24T09:28:04.878Z,10.73
2023-03-24T09:30:33.312Z,9.60
2023-03-24T09:33:01.469Z,9.20
2023-03-24T09:35:28.611Z,9.17
2023-03-24T09:37:55.840Z,14.37
2023-03-24T09:40:25.408Z,10.20
2023-03-24T09:43:01.810Z,9.90
2023-03-24T09:45:29.741Z,7.83
2023-03-24T09:47:57.935Z,7.83
2023-03-24T09:50:25.908Z,10.27
2023-03-24T09:52:57.297Z,8.77
2023-03-24T09:55:25.161Z,10.50
2023-03-24T09:57:52.055Z,8.30
2023-03-24T10:00:20.222Z,8.17
2023-03-24T10:02:49.057Z,7.50
2023-03-24T10:05:19.212Z,7.97
2023-03-24T10:07:47.889Z,7.73
2023-03-24T10:10:27.587Z,6.97
2023-03-24T10:12:54.570Z,7.60
2023-03-24T10:15:37.715Z,9.03
2023-03-24T10:18:24.232Z,10.07
2023-03-24T10:20:52.337Z,4.90
2023-03-24T10:23:33.852Z,8.33
2023-03-24T10:26:06.938Z,9.53
2023-03-24T10:28:33.859Z,7.40
2023-03-24T10:31:01.646Z,11.57
2023-03-24T10:33:28.802Z,10.70
2023-03-24T10:35:58.582Z,10.37
2023-03-24T10:38:25.682Z,8.83
2023-03-24T10:40:52.344Z,10.40
2023-03-24T10:43:19.370Z,9.97
2023-03-24T10:45:55.895Z,9.97
2023-03-24T10:48:41.838Z,8.27
2023-03-24T10:51:16.528Z,8.97
2023-03-24T10:53:47.882Z,9.63
2023-03-24T10:56:18.894Z,8.20
2023-03-24T10:58:46.076Z,7.37
2023-03-24T11:01:25.160Z,8.43
2023-03-24T11:03:59.128Z,7.27
2023-03-24T11:06:26.243Z,9.00
2023-03-24T11:09:10.106Z,6.83
2023-03-24T11:11:37.080Z,7.63
2023-03-24T11:14:04.097Z,8.23
2023-03-24T11:16:40.357Z,8.60
2023-03-24T11:19:07.817Z,7.60
2023-03-24T11:21:37.684Z,8.13
2023-03-24T11:24:09.779Z,8.73
2023-03-24T11:26:37.179Z,8.03
2023-03-24T11:29:07.633Z,6.73
2023-03-24T11:31:38.318Z,5.70
2023-03-24T11:34:11.736Z,7.37
2023-03-24T11:36:46.288Z,7.93
2023-03-24T11:39:17.586Z,6.63
2023-03-24T11:41:51.784Z,6.20
2023-03-24T11:44:25.238Z,4.97
2023-03-24T11:47:16.557Z,5.57
2023-03-24T11:49:44.384Z,5.03
2023-03-24T11:52:22.665Z,5.23
2023-03-24T11:54:49.431Z,6.23
2023-03-24T11:57:17.704Z,4.23
2023-03-24T12:00:10.950Z,5.20
2023-03-24T12:02:46.215Z,4.00
2023-03-24T12:05:16.387Z,3.87
2023-03-24T12:07:49.714Z,5.77
2023-03-24T12:10:16.497Z,5.70
2023-03-24T12:12:47.851Z,3.73
2023-03-24T12:15:28.019Z,3.83
2023-03-24T12:18:00.773Z,4.17
2023-03-24T12:20:30.668Z,3.97
2023-03-24T12:22:59.588Z,7.43
2023-03-24T12:25:38.669Z,5.70
2023-03-24T12:28:06.308Z,5.23
2023-03-24T12:30:45.303Z,5.10
2023-03-24T12:33:23.692Z,3.90
2023-03-24T12:36:11.545Z,6.07
2023-03-24T12:38:52.858Z,6.10
2023-03-24T12:41:25.026Z,5.30
2023-03-24T12:44:08.783Z,4.53
2023-03-24T12:46:48.814Z,4.40
2023-03-24T12:49:34.827Z,6.17
2023-03-24T12:52:07.515Z,5.67
2023-03-24T12:55:03.184Z,4.33
2023-03-24T12:57:30.481Z,5.23
2023-03-24T12:59:58.217Z,5.37
2023-03-24T13:02:27.727Z,4.20
2023-03-24T13:04:55.282Z,4.33
2023-03-24T13:07:25.929Z,5.43
2023-03-24T13:09:59.554Z,3.90
2023-03-24T13:12:33.360Z,4.20
2023-03-24T13:15:04.016Z,4.67
2023-03-24T13:17:32.136Z,4.10
2023-03-24T13:19:58.772Z,4.87
2023-03-24T13:22:25.847Z,4.50
2023-03-24T13:24:52.507Z,6.23
2023-03-24T13:27:22.377Z,5.40
2023-03-24T13:30:03.609Z,6.70
2023-03-24T13:32:30.508Z,5.27
2023-03-24T13:35:00.462Z,6.53
2023-03-24T13:37:35.778Z,7.47
2023-03-24T13:40:06.873Z,8.17
2023-03-24T13:42:35.111Z,8.20
2023-03-24T13:45:06.506Z,6.33
2023-03-24T13:47:52.197Z,5.37
2023-03-24T13:50:19.089Z,6.70
2023-03-24T13:52:49.250Z,5.80
2023-03-24T13:55:16.203Z,8.17
2023-03-24T13:57:43.343Z,5.97
2023-03-24T14:00:18.019Z,4.27
2023-03-24T14:02:47.868Z,4.07
2023-03-24T14:05:26.783Z,4.13
2023-03-24T14:08:13.994Z,5.67
2023-03-24T14:10:44.835Z,5.50
2023-03-24T14:13:11.765Z,4.90
2023-03-24T14:15:57.151Z,4.33
2023-03-24T14:18:24.528Z,3.73
2023-03-24T14:20:57.741Z,4.30
2023-03-24T14:23:33.944Z,3.03
2023-03-24T14:26:00.902Z,3.43
2023-03-24T14:28:46.831Z,3.83
2023-03-24T14:31:16.357Z,4.60
2023-03-24T14:33:44.418Z,7.33
2023-03-24T14:36:17.316Z,5.83
2023-03-24T14:38:44.253Z,6.37
2023-03-24T14:41:17.377Z,4.23
2023-03-24T14:43:44.384Z,6.23
2023-03-24T14:46:20.706Z,7.60
2023-03-24T14:49:06.377Z,5.73
2023-03-24T14:51:39.376Z,5.30
2023-03-24T14:54:12.020Z,4.67
2023-03-24T14:56:39.968Z,5.00
2023-03-24T14:59:25.774Z,4.00
2023-03-24T15:01:54.201Z,4.10
2023-03-24T15:04:21.857Z,4.03
2023-03-24T15:06:52.113Z,4.13
2023-03-24T15:09:18.872Z,3.70
2023-03-24T15:11:46.486Z,4.90
2023-03-24T15:14:31.283Z,4.10
2023-03-24T15:17:04.470Z,3.83
2023-03-24T15:19:31.477Z,3.50
2023-03-24T15:21:58.291Z,3.30
2023-03-24T15:24:29.273Z,5.23
2023-03-24T15:27:08.798Z,4.40
2023-03-24T15:29:41.190Z,4.93
2023-03-24T15:32:09.822Z,5.03
2023-03-24T15:34:37.350Z,5.33
2023-03-24T15:37:05.522Z,5.07
2023-03-24T15:39:37.092Z,8.50
2023-03-24T15:42:07.527Z,2.87
2023-03-24T15:44:37.831Z,2.97
2023-03-24T15:47:04.863Z,6.77
2023-03-24T15:49:32.296Z,3.93
2023-03-24T15:52:00.488Z,8.93
2023-03-24T15:54:29.182Z,4.87
2023-03-24T15:57:15.309Z,7.73
2023-03-24T15:59:46.949Z,8.93
2023-03-24T16:02:17.957Z,7.33
2023-03-24T16:04:44.955Z,5.20
2023-03-24T16:07:24.101Z,6.37
2023-03-24T16:09:55.710Z,9.37
2023-03-24T16:12:23.316Z,9.30
2023-03-24T16:14:50.171Z,6.90
2023-03-24T16:17:17.431Z,6.97
2023-03-24T16:19:44.344Z,6.40
2023-03-24T16:22:11.621Z,7.77
2023-03-24T16:24:38.383Z,5.90
2023-03-24T16:27:05.322Z,6.63
2023-03-24T16:29:32.432Z,8.87
2023-03-24T16:32:00.939Z,7.47
2023-03-24T16:34:27.846Z,10.73
2023-03-24T16:36:54.865Z,7.97
2023-03-24T16:39:22.548Z,7.77
2023-03-24T16:41:49.748Z,6.57
2023-03-24T16:44:17.687Z,8.20
2023-03-24T16:46:46.605Z,9.00
2023-03-24T16:49:15.030Z,7.67
2023-03-24T16:51:42.092Z,11.00
2023-03-24T16:54:09.387Z,10.70
2023-03-24T16:56:36.481Z,13.50
2023-03-24T16:59:03.365Z,10.17
2023-03-24T17:01:33.925Z,10.77
2023-03-24T17:04:01.858Z,14.53
2023-03-24T17:06:30.443Z,8.50
2023-03-24T17:08:59.872Z,7.33
2023-03-24T17:11:30.576Z,11.17
2023-03-24T17:14:03.792Z,9.80
2023-03-24T17:16:32.774Z,10.13
2023-03-24T17:19:03.007Z,10.40
2023-03-24T17:21:29.922Z,10.73
2023-03-24T17:24:01.305Z,12.67
2023-03-24T17:26:29.221Z,8.13
2023-03-24T17:28:57.281Z,11.33
2023-03-24T17:31:24.413Z,11.70
2023-03-24T17:33:51.420Z,8.53
2023-03-24T17:36:18.341Z,13.43
2023-03-24T17:38:48.201Z,10.67
2023-03-24T17:41:15.000Z,9.17
2023-03-24T17:43:41.736Z,12.63
2023-03-24T17:46:09.056Z,8.70
2023-03-24T17:48:37.319Z,8.33
2023-03-24T17:51:04.806Z,11.20
2023-03-24T17:53:33.820Z,21.40
2023-03-24T17:56:07.755Z,15.07
2023-03-24T17:58:34.836Z,23.80
2023-03-24T18:01:08.492Z,27.60
2023-03-24T18:03:38.996Z,22.87
2023-03-24T18:06:07.700Z,28.37
2023-03-24T18:08:36.164Z,19.67
2023-03-24T18:11:10.329Z,19.60
2023-03-24T18:13:37.350Z,17.37
2023-03-24T18:16:19.974Z,15.60
2023-03-24T18:18:48.095Z,17.77
2023-03-24T18:21:14.989Z,12.87
2023-03-24T18:23:43.385Z,13.63
2023-03-24T18:26:10.333Z,14.70
2023-03-24T18:28:38.026Z,16.70
2023-03-24T18:31:09.093Z,16.93
2023-03-24T18:33:36.556Z,14.07
2023-03-24T18:36:05.624Z,17.73
2023-03-24T18:38:32.587Z,18.03
2023-03-24T18:41:05.058Z,13.97
2023-03-24T18:43:34.620Z,12.37
2023-03-24T18:46:01.751Z,14.23
2023-03-24T18:48:28.688Z,19.23
2023-03-24T18:50:55.651Z,15.03
2023-03-24T18:53:22.826Z,13.60
2023-03-24T18:55:50.498Z,16.77
2023-03-24T18:58:17.600Z,15.13
2023-03-24T19:00:48.259Z,15.80
2023-03-24T19:03:16.628Z,15.70
2023-03-24T19:05:43.396Z,13.90
2023-03-24T19:08:15.214Z,16.20
2023-03-24T19:10:43.201Z,12.40
2023-03-24T19:13:11.068Z,15.10
2023-03-24T19:15:38.391Z,18.20
2023-03-24T19:18:05.561Z,15.03
2023-03-24T19:20:37.977Z,16.27
2023-03-24T19:23:06.080Z,12.33
2023-03-24T19:25:34.087Z,12.67
2023-03-24T19:28:01.280Z,17.00
2023-03-24T19:30:28.245Z,16.00
2023-03-24T19:32:58.237Z,17.00
2023-03-24T19:35:27.928Z,12.37
2023-03-24T19:37:54.781Z,13.67
2023-03-24T19:40:23.320Z,14.00
2023-03-24T19:42:50.447Z,13.50
2023-03-24T19:45:19.746Z,14.70
2023-03-24T19:47:47.400Z,14.77
2023-03-24T19:50:14.918Z,13.37
2023-03-24T19:52:46.271Z,12.77
2023-03-24T19:55:13.531Z,16.30
2023-03-24T19:57:40.485Z,11.57
2023-03-24T20:00:10.375Z,13.63
2023-03-24T20:02:37.534Z,13.50
2023-03-24T20:05:04.877Z,13.07
2023-03-24T20:07:31.631Z,15.20
2023-03-24T20:09:58.689Z,16.07
2023-03-24T20:12:29.043Z,16.67
2023-03-24T20:14:58.607Z,14.37
2023-03-24T20:17:30.005Z,14.10
2023-03-24T20:19:59.121Z,13.33
2023-03-24T20:22:26.155Z,11.80
2023-03-24T20:24:52.994Z,13.47
2023-03-24T20:27:20.224Z,12.30
2023-03-24T20:29:46.970Z,18.20
2023-03-24T20:32:14.835Z,15.23
2023-03-24T20:34:44.568Z,13.23
2023-03-24T20:37:11.428Z,14.67
2023-03-24T20:39:40.441Z,17.83
2023-03-24T20:42:08.229Z,13.57
2023-03-24T20:44:35.193Z,11.70
2023-03-24T20:47:03.372Z,14.90
2023-03-24T20:49:33.240Z,10.47
2023-03-24T20:52:00.102Z,16.13
2023-03-24T20:54:26.735Z,13.67
2023-03-24T20:56:56.528Z,12.43
2023-03-24T20:59:23.325Z,12.50
2023-03-24T21:01:50.328Z,10.60
2023-03-24T21:04:17.231Z,12.73
2023-03-24T21:06:44.093Z,16.37
2023-03-24T21:09:10.957Z,13.53
2023-03-24T21:11:37.785Z,14.80
2023-03-24T21:14:04.736Z,14.53
2023-03-24T21:16:33.876Z,12.97
2023-03-24T21:19:01.965Z,14.40
2023-03-24T21:21:28.892Z,15.33
2023-03-24T21:23:57.642Z,20.27
2023-03-24T21:26:25.400Z,14.77
2023-03-24T21:28:53.093Z,18.03
2023-03-24T21:31:21.726Z,18.83
2023-03-24T21:33:48.798Z,17.53
2023-03-24T21:36:15.778Z,19.97
2023-03-24T21:38:42.606Z,19.23
2023-03-24T21:41:09.536Z,17.87
2023-03-24T21:43:36.366Z,16.53
2023-03-24T21:46:04.653Z,16.93
2023-03-24T21:48:33.032Z,14.37
2023-03-24T21:51:00.372Z,16.13
2023-03-24T21:53:27.219Z,21.10
2023-03-24T21:56:05.043Z,15.43
2023-03-24T21:58:32.109Z,17.00
2023-03-24T22:00:59.305Z,14.90
2023-03-24T22:03:26.552Z,15.30
2023-03-24T22:05:56.600Z,12.67
2023-03-24T22:08:26.911Z,14.83
2023-03-24T22:11:00.641Z,17.90
2023-03-24T22:13:30.232Z,17.80
2023-03-24T22:15:57.729Z,16.70
2023-03-24T22:18:24.938Z,20.37
2023-03-24T22:21:12.689Z,15.00
2023-03-24T22:23:40.475Z,19.40
2023-03-24T22:26:08.059Z,15.60
2023-03-24T22:28:34.907Z,16.40
2023-03-24T22:31:06.212Z,21.10
2023-03-24T22:33:32.913Z,14.60
2023-03-24T22:35:59.861Z,19.27
2023-03-24T22:38:55.149Z,22.43
2023-03-24T22:41:21.938Z,20.20
2023-03-24T22:43:49.281Z,19.50
2023-03-24T22:46:16.684Z,19.90
2023-03-24T22:48:43.436Z,18.23
2023-03-24T22:51:16.978Z,24.73
2023-03-24T22:53:43.708Z,20.50
2023-03-24T22:56:10.475Z,17.43
2023-03-24T22:58:37.571Z,19.87
2023-03-24T23:01:06.183Z,17.73
2023-03-24T23:03:33.219Z,22.50
2023-03-24T23:06:01.905Z,23.07
2023-03-24T23:08:30.240Z,16.43
2023-03-24T23:10:58.446Z,20.37
2023-03-24T23:13:30.750Z,17.47
2023-03-24T23:15:57.691Z,16.03
2023-03-24T23:18:24.358Z,20.80
2023-03-24T23:20:51.107Z,14.83
2023-03-24T23:23:17.738Z,18.43
2023-03-24T23:25:44.816Z,14.60
2023-03-24T23:28:11.828Z,22.50
2023-03-24T23:30:38.746Z,13.83
2023-03-24T23:33:05.476Z,19.77
2023-03-24T23:35:33.250Z,13.63
2023-03-24T23:37:59.899Z,15.20
2023-03-24T23:40:26.726Z,20.27
2023-03-24T23:42:53.455Z,11.33
2023-03-24T23:45:20.427Z,13.43
2023-03-24T23:47:49.748Z,14.53
2023-03-24T23:50:17.303Z,10.73
2023-03-24T23:52:44.112Z,14.67
2023-03-24T23:55:13.839Z,16.57
2023-03-24T23:57:41.448Z,11.03
